Time;durP1;ratioP1;P1;durP2;ratioP2;P2;SDS_P1;SDS_P2;PMS_P1;PMS_P2;Temp;Humidity;BMP_temperature;BMP_pressure;BME280_temperature;BME280_humidity;BME280_pressure;Samples;Min_cycle;Max_cycle;Signal;HPM_P1;HPM_P2
2022/03/07 00:00:05;;;;;;;;;;;23.70;38.90;;;;;;1583867;75;725;-64
2022/03/07 00:02:07;;;;;;;;;;;23.70;38.90;;;;;;1558969;76;703;-64
2022/03/07 00:04:09;;;;;;;;;;;23.70;38.90;;;;;;1558890;76;1947;-65
2022/03/07 00:06:11;;;;;;;;;;;23.70;38.90;;;;;;1569849;73;654;-64
2022/03/07 00:08:14;;;;;;;;;;;23.70;38.90;;;;;;1586237;75;1110;-63
2022/03/07 00:10:16;;;;;;;;;;;23.60;38.80;;;;;;1586014;75;742;-65
2022/03/07 00:12:18;;;;;;;;;;;23.70;38.90;;;;;;1586242;75;718;-63
2022/03/07 00:14:19;;;;;;;;;;;23.70;38.90;;;;;;1586945;73;760;-62
2022/03/07 00:16:21;;;;;;;;;;;23.70;38.90;;;;;;1586169;75;722;-63
2022/03/07 00:18:23;;;;;;;;;;;23.70;38.90;;;;;;1586224;75;1141;-63
2022/03/07 00:20:25;;;;;;;;;;;23.70;39.00;;;;;;1577243;73;706;-64
2022/03/07 00:22:27;;;;;;;;;;;23.70;38.90;;;;;;1586279;74;1942;-63
2022/03/07 00:24:29;;;;;;;;;;;23.70;39.00;;;;;;1586285;74;741;-65
2022/03/07 00:26:31;;;;;;;;;;;23.70;38.90;;;;;;1586141;74;702;-64
2022/03/07 00:28:32;;;;;;;;;;;23.70;38.90;;;;;;1586901;73;1187;-64
2022/03/07 00:30:34;;;;;;;;;;;23.70;39.00;;;;;;1586202;75;714;-64
2022/03/07 00:32:36;;;;;;;;;;;23.60;38.90;;;;;;1586151;75;754;-64
2022/03/07 00:34:38;;;;;;;;;;;23.60;38.90;;;;;;1586265;75;772;-64
2022/03/07 00:36:40;;;;;;;;;;;23.70;39.00;;;;;;1586014;75;730;-65
2022/03/07 00:38:42;;;;;;;;;;;23.70;39.10;;;;;;1587035;73;1184;-64
2022/03/07 00:40:44;;;;;;;;;;;23.70;39.10;;;;;;1585980;75;637;-64
2022/03/07 00:42:46;;;;;;;;;;;23.70;39.10;;;;;;1586175;75;1911;-66
2022/03/07 00:44:48;;;;;;;;;;;23.70;39.10;;;;;;1586251;75;711;-63
2022/03/07 00:46:49;;;;;;;;;;;23.70;39.10;;;;;;1586028;75;772;-64
2022/03/07 00:48:51;;;;;;;;;;;23.60;39.00;;;;;;1586979;73;1143;-63
2022/03/07 00:50:53;;;;;;;;;;;23.70;39.20;;;;;;1567880;73;787;-64
2022/03/07 00:52:55;;;;;;;;;;;23.70;39.20;;;;;;1558922;76;775;-66
2022/03/07 00:54:57;;;;;;;;;;;23.70;39.20;;;;;;1558955;76;590;-66
2022/03/07 00:56:59;;;;;;;;;;;23.60;39.20;;;;;;1559056;76;571;-65
2022/03/07 00:59:01;;;;;;;;;;;23.60;39.10;;;;;;1569583;73;1110;-67
2022/03/07 01:01:03;;;;;;;;;;;23.60;39.20;;;;;;1586220;75;710;-65
2022/03/07 01:03:05;;;;;;;;;;;23.60;39.20;;;;;;1586137;75;1911;-65
2022/03/07 01:05:07;;;;;;;;;;;23.60;39.20;;;;;;1586217;75;675;-65
2022/03/07 01:07:09;;;;;;;;;;;23.70;39.30;;;;;;1586222;75;765;-64
2022/03/07 01:09:11;;;;;;;;;;;23.60;39.20;;;;;;1581596;73;1109;-64
2022/03/07 01:11:13;;;;;;;;;;;23.70;39.30;;;;;;1561384;75;807;-63
2022/03/07 01:13:15;;;;;;;;;;;23.60;39.20;;;;;;1559028;75;726;-65
2022/03/07 01:15:17;;;;;;;;;;;23.60;39.30;;;;;;1558824;75;826;-61
2022/03/07 01:17:19;;;;;;;;;;;23.60;39.20;;;;;;1559200;76;712;-64
2022/03/07 01:19:20;;;;;;;;;;;23.70;39.40;;;;;;1602447;73;668;-64
2022/03/07 01:21:22;;;;;;;;;;;23.70;39.50;;;;;;1587606;73;804;-65
2022/03/07 01:23:24;;;;;;;;;;;23.70;39.40;;;;;;1586186;75;1939;-66
2022/03/07 01:25:26;;;;;;;;;;;23.70;39.50;;;;;;1585932;75;773;-65
2022/03/07 01:27:28;;;;;;;;;;;23.60;39.40;;;;;;1584139;73;1187;-64
2022/03/07 01:29:30;;;;;;;;;;;23.70;39.60;;;;;;1582783;73;973;-65
2022/03/07 01:31:32;;;;;;;;;;;23.70;39.50;;;;;;1554158;75;802;-65
2022/03/07 01:33:33;;;;;;;;;;;23.70;39.50;;;;;;1581331;74;715;-64
2022/03/07 01:35:35;;;;;;;;;;;23.60;39.40;;;;;;1580955;75;737;-64
2022/03/07 01:37:37;;;;;;;;;;;23.70;39.50;;;;;;1571533;73;1142;-64
2022/03/07 01:39:39;;;;;;;;;;;23.70;39.50;;;;;;1569415;75;755;-63
2022/03/07 01:41:41;;;;;;;;;;;23.70;39.50;;;;;;1572825;75;712;-63
2022/03/07 01:43:43;;;;;;;;;;;23.60;39.40;;;;;;1585215;75;1914;-64
2022/03/07 01:45:45;;;;;;;;;;;23.70;39.60;;;;;;1578595;73;778;-64
2022/03/07 01:47:47;;;;;;;;;;;23.60;39.40;;;;;;1585965;75;1129;-64
2022/03/07 01:49:52;;;;;;;;;;;23.60;39.40;;;;;;1578532;73;722;-62
2022/03/07 01:51:53;;;;;;;;;;;23.60;39.50;;;;;;1572888;73;1623;-64
2022/03/07 01:53:54;;;;;;;;;;;23.70;39.70;;;;;;1571887;75;1008;-64
2022/03/07 01:55:56;;;;;;;;;;;23.70;39.70;;;;;;1579059;73;795;-63
2022/03/07 01:57:58;;;;;;;;;;;23.70;39.70;;;;;;1573752;73;1163;-61
2022/03/07 02:00:00;;;;;;;;;;;23.60;39.60;;;;;;1573215;75;769;-61
2022/03/07 02:02:02;;;;;;;;;;;23.60;39.60;;;;;;1573894;73;772;-63
2022/03/07 02:04:04;;;;;;;;;;;23.60;39.70;;;;;;1575821;73;1899;-62
2022/03/07 02:06:06;;;;;;;;;;;23.50;39.70;;;;;;1573593;75;785;-64
2022/03/07 02:08:08;;;;;;;;;;;23.60;39.70;;;;;;1572919;73;1135;-61
2022/03/07 02:10:11;;;;;;;;;;;23.70;39.80;;;;;;1564912;75;781;-63
2022/03/07 02:12:13;;;;;;;;;;;23.60;39.80;;;;;;1564877;75;740;-62
2022/03/07 02:14:18;;;;;;;;;;;23.50;39.80;;;;;;1569034;73;701;-64
2022/03/07 02:16:20;;;;;;;;;;;23.60;39.80;;;;;;1564785;75;747;-64
2022/03/07 02:18:24;;;;;;;;;;;23.60;39.80;;;;;;1569259;75;1190;-65
2022/03/07 02:20:26;;;;;;;;;;;23.60;39.80;;;;;;1571087;73;747;-66
2022/03/07 02:22:28;;;;;;;;;;;23.50;39.90;;;;;;1578083;75;670;-64
2022/03/07 02:24:30;;;;;;;;;;;23.60;39.90;;;;;;1570855;75;1945;-64
2022/03/07 02:26:32;;;;;;;;;;;23.50;39.90;;;;;;1566415;75;758;-63
2022/03/07 02:28:34;;;;;;;;;;;23.60;40.00;;;;;;1566521;75;1174;-63
2022/03/07 02:30:35;;;;;;;;;;;23.60;40.00;;;;;;1574796;73;726;-64
2022/03/07 02:32:37;;;;;;;;;;;23.60;40.00;;;;;;1565475;75;660;-61
2022/03/07 02:34:39;;;;;;;;;;;23.60;40.00;;;;;;1577042;74;713;-62
2022/03/07 02:36:41;;;;;;;;;;;23.60;40.10;;;;;;1572280;75;664;-63
2022/03/07 02:38:43;;;;;;;;;;;23.60;40.00;;;;;;1576324;73;1125;-64
2022/03/07 02:40:46;;;;;;;;;;;23.60;40.00;;;;;;1571005;75;733;-61
2022/03/07 02:42:48;;;;;;;;;;;23.60;40.00;;;;;;1571046;75;842;-63
2022/03/07 02:44:50;;;;;;;;;;;23.60;40.00;;;;;;1570882;75;1935;-63
2022/03/07 02:46:51;;;;;;;;;;;23.60;40.10;;;;;;1573923;75;658;-64
2022/03/07 02:48:53;;;;;;;;;;;23.50;40.20;;;;;;1574755;73;1143;-62
2022/03/07 02:50:58;;;;;;;;;;;23.50;40.20;;;;;;1566049;73;736;-63
2022/03/07 02:53:00;;;;;;;;;;;23.60;40.20;;;;;;1581470;75;918;-62
2022/03/07 02:55:02;;;;;;;;;;;23.50;40.20;;;;;;1575424;75;746;-64
2022/03/07 02:57:04;;;;;;;;;;;23.50;40.20;;;;;;1575587;75;701;-62
2022/03/07 02:59:06;;;;;;;;;;;23.60;40.20;;;;;;1574551;73;1115;-62
2022/03/07 03:01:08;;;;;;;;;;;23.50;40.20;;;;;;1573961;75;725;-62
2022/03/07 03:03:10;;;;;;;;;;;23.50;40.30;;;;;;1574797;75;789;-61
2022/03/07 03:05:12;;;;;;;;;;;23.60;40.30;;;;;;1569957;74;1941;-62
2022/03/07 03:07:13;;;;;;;;;;;23.50;40.30;;;;;;1577005;75;963;-62
2022/03/07 03:09:15;;;;;;;;;;;23.50;40.20;;;;;;1572076;73;1156;-63
2022/03/07 03:11:17;;;;;;;;;;;23.40;40.20;;;;;;1576883;75;744;-63
2022/03/07 03:13:20;;;;;;;;;;;23.50;40.40;;;;;;1576917;75;781;-63
2022/03/07 03:15:22;;;;;;;;;;;23.60;40.40;;;;;;1580197;75;787;-63
2022/03/07 03:17:26;;;;;;;;;;;23.50;40.30;;;;;;1576871;75;1148;-61
2022/03/07 03:19:28;;;;;;;;;;;23.50;40.40;;;;;;1575256;73;766;-62
2022/03/07 03:21:30;;;;;;;;;;;23.50;40.30;;;;;;1580909;75;781;-63
2022/03/07 03:23:31;;;;;;;;;;;23.50;40.40;;;;;;1567879;75;1938;-62
2022/03/07 03:25:33;;;;;;;;;;;23.50;40.50;;;;;;1575343;75;761;-63
2022/03/07 03:27:35;;;;;;;;;;;23.50;40.40;;;;;;1575146;73;1180;-64
2022/03/07 03:29:37;;;;;;;;;;;23.60;40.50;;;;;;1578485;75;724;-62
2022/03/07 03:31:39;;;;;;;;;;;23.50;40.50;;;;;;1575766;75;710;-63
2022/03/07 03:33:42;;;;;;;;;;;23.50;40.50;;;;;;1570336;75;754;-63
2022/03/07 03:35:44;;;;;;;;;;;23.60;40.60;;;;;;1581242;75;695;-63
2022/03/07 03:37:46;;;;;;;;;;;23.60;40.50;;;;;;1576198;73;1108;-64
2022/03/07 03:39:48;;;;;;;;;;;23.70;40.70;;;;;;1575892;75;676;-64
2022/03/07 03:41:49;;;;;;;;;;;23.70;40.60;;;;;;1580340;75;808;-63
2022/03/07 03:43:51;;;;;;;;;;;23.70;40.60;;;;;;1583124;75;1953;-66
2022/03/07 03:45:53;;;;;;;;;;;23.70;40.60;;;;;;1581068;73;672;-65
2022/03/07 03:49:59;;;;;;;;;;;23.90;40.60;;;;;;1620133;72;643;-68
2022/03/07 03:52:00;;;;;;;;;;;23.90;40.50;;;;;;1623258;72;772;-67
2022/03/07 03:54:03;;;;;;;;;;;24.00;40.50;;;;;;1620799;72;770;-67
2022/03/07 03:56:05;;;;;;;;;;;24.00;40.50;;;;;;1621479;72;834;-68
2022/03/07 03:58:07;;;;;;;;;;;24.00;40.50;;;;;;1623603;72;1190;-67
2022/03/07 04:00:11;;;;;;;;;;;24.00;40.40;;;;;;1618432;72;735;-67
2022/03/07 04:02:12;;;;;;;;;;;24.10;40.50;;;;;;1622775;72;703;-68
2022/03/07 04:04:14;;;;;;;;;;;24.10;40.40;;;;;;1623493;72;1939;-68
2022/03/07 04:06:16;;;;;;;;;;;24.00;40.30;;;;;;1623210;72;722;-69
2022/03/07 04:08:18;;;;;;;;;;;24.20;40.40;;;;;;1622468;72;1150;-68
2022/03/07 04:10:20;;;;;;;;;;;24.10;40.30;;;;;;1622251;72;713;-67
2022/03/07 04:12:22;;;;;;;;;;;24.10;40.30;;;;;;1623390;72;738;-68
2022/03/07 04:14:24;;;;;;;;;;;24.20;40.30;;;;;;1622538;72;714;-68
2022/03/07 04:16:26;;;;;;;;;;;24.10;40.20;;;;;;1622326;73;791;-68
2022/03/07 04:18:27;;;;;;;;;;;24.10;40.20;;;;;;1622005;72;1154;-70
2022/03/07 04:20:29;;;;;;;;;;;24.10;40.20;;;;;;1621267;73;666;-68
2022/03/07 04:22:32;;;;;;;;;;;24.20;40.20;;;;;;1621259;73;748;-68
2022/03/07 04:24:35;;;;;;;;;;;24.10;40.20;;;;;;1623471;71;2088;-67
2022/03/07 04:26:37;;;;;;;;;;;24.10;40.20;;;;;;1622124;71;689;-67
2022/03/07 04:28:39;;;;;;;;;;;24.10;40.20;;;;;;1622630;72;1159;-67
2022/03/07 04:30:42;;;;;;;;;;;24.10;40.20;;;;;;1607933;73;755;-68
2022/03/07 04:32:44;;;;;;;;;;;24.20;40.20;;;;;;1622513;73;702;-67
2022/03/07 04:34:46;;;;;;;;;;;24.20;40.20;;;;;;1612521;73;747;-70
2022/03/07 04:36:48;;;;;;;;;;;24.10;40.10;;;;;;1624366;73;789;-70
2022/03/07 04:38:50;;;;;;;;;;;24.20;40.10;;;;;;1622406;73;1153;-67
2022/03/07 04:40:52;;;;;;;;;;;24.20;40.00;;;;;;1621059;73;728;-66
2022/03/07 04:42:56;;;;;;;;;;;24.20;40.00;;;;;;1622802;73;749;-68
2022/03/07 04:44:57;;;;;;;;;;;24.20;40.00;;;;;;1622832;73;1902;-69
2022/03/07 04:46:59;;;;;;;;;;;24.20;39.90;;;;;;1623370;73;708;-67
2022/03/07 04:49:01;;;;;;;;;;;24.20;39.90;;;;;;1617007;73;1133;-68
2022/03/07 04:51:03;;;;;;;;;;;24.30;40.00;;;;;;1617819;72;622;-68
2022/03/07 04:53:05;;;;;;;;;;;24.30;40.00;;;;;;1623170;73;751;-69
2022/03/07 04:55:07;;;;;;;;;;;24.20;39.80;;;;;;1617977;73;734;-65
2022/03/07 04:57:09;;;;;;;;;;;24.20;39.80;;;;;;1614385;73;939;-67
2022/03/07 04:59:13;;;;;;;;;;;24.20;39.80;;;;;;1621737;72;1146;-68
2022/03/07 05:01:15;;;;;;;;;;;24.30;39.90;;;;;;1622517;73;693;-68
2022/03/07 05:03:17;;;;;;;;;;;24.30;39.80;;;;;;1622037;73;703;-68
2022/03/07 05:05:20;;;;;;;;;;;24.30;39.80;;;;;;1622759;72;1936;-67
2022/03/07 05:07:21;;;;;;;;;;;24.20;39.70;;;;;;1623205;73;736;-68
2022/03/07 05:09:23;;;;;;;;;;;24.30;39.70;;;;;;1622399;73;1161;-67
2022/03/07 05:11:25;;;;;;;;;;;24.20;39.60;;;;;;1622967;73;728;-67
2022/03/07 05:13:27;;;;;;;;;;;24.30;39.90;;;;;;1622859;72;722;-68
2022/03/07 05:15:29;;;;;;;;;;;24.30;39.90;;;;;;1622071;71;660;-68
2022/03/07 05:17:31;;;;;;;;;;;24.20;39.80;;;;;;1622737;73;752;-68
2022/03/07 05:19:33;;;;;;;;;;;24.20;39.80;;;;;;1621683;72;1116;-69
2022/03/07 05:21:35;;;;;;;;;;;24.30;39.90;;;;;;1623754;72;772;-71
2022/03/07 05:23:38;;;;;;;;;;;24.20;39.80;;;;;;1594220;73;803;-68
2022/03/07 05:25:40;;;;;;;;;;;24.20;39.70;;;;;;1554389;74;1923;-70
2022/03/07 05:27:42;;;;;;;;;;;24.20;39.90;;;;;;1593618;74;679;-70
2022/03/07 05:29:43;;;;;;;;;;;24.20;39.90;;;;;;1558288;74;819;-73
2022/03/07 05:31:45;;;;;;;;;;;24.30;39.80;;;;;;1558942;74;734;-68
2022/03/07 05:33:47;;;;;;;;;;;24.40;39.50;;;;;;1557166;76;779;-69
2022/03/07 05:35:49;;;;;;;;;;;24.30;39.50;;;;;;1558716;74;756;-72
2022/03/07 05:37:51;;;;;;;;;;;24.40;39.30;;;;;;1558788;76;1142;-70
2022/03/07 05:39:53;;;;;;;;;;;24.50;39.20;;;;;;1558734;75;718;-70
2022/03/07 05:41:55;;;;;;;;;;;24.40;39.00;;;;;;1585869;74;726;-70
2022/03/07 05:43:57;;;;;;;;;;;24.40;38.90;;;;;;1591589;73;784;-73
2022/03/07 05:45:58;;;;;;;;;;;24.50;39.00;;;;;;1588036;73;1943;-72
2022/03/07 05:48:00;;;;;;;;;;;24.40;38.90;;;;;;1587249;73;1135;-69
2022/03/07 05:50:03;;;;;;;;;;;24.30;38.90;;;;;;1579116;73;779;-69
2022/03/07 05:52:05;;;;;;;;;;;24.40;38.90;;;;;;1585998;73;725;-70
2022/03/07 05:54:06;;;;;;;;;;;24.30;38.90;;;;;;1586252;74;727;-69
2022/03/07 05:56:09;;;;;;;;;;;24.40;39.00;;;;;;1591711;74;738;-71
2022/03/07 05:58:10;;;;;;;;;;;24.30;39.00;;;;;;1585301;73;1166;-69
2022/03/07 06:00:13;;;;;;;;;;;24.30;39.10;;;;;;1588385;73;765;-67
2022/03/07 06:02:14;;;;;;;;;;;24.30;39.10;;;;;;1591074;74;730;-69
2022/03/07 06:04:16;;;;;;;;;;;24.40;39.20;;;;;;1591796;73;720;-72
2022/03/07 06:06:18;;;;;;;;;;;24.30;39.30;;;;;;1586083;73;1945;-69
2022/03/07 06:08:20;;;;;;;;;;;24.30;39.40;;;;;;1585867;74;1156;-70
2022/03/07 06:10:22;;;;;;;;;;;24.40;39.40;;;;;;1590691;74;764;-73
2022/03/07 06:12:26;;;;;;;;;;;24.30;39.50;;;;;;1582208;74;719;-70
2022/03/07 06:14:27;;;;;;;;;;;24.30;39.50;;;;;;1591541;74;1137;-69
2022/03/07 06:16:29;;;;;;;;;;;24.30;39.50;;;;;;1594355;74;694;-70
2022/03/07 06:18:31;;;;;;;;;;;24.30;39.40;;;;;;1593432;73;1140;-69
2022/03/07 06:20:33;;;;;;;;;;;24.30;39.40;;;;;;1586456;74;681;-70
2022/03/07 06:22:35;;;;;;;;;;;24.40;39.40;;;;;;1558400;75;779;-70
2022/03/07 06:24:37;;;;;;;;;;;24.30;39.40;;;;;;1615287;73;1929;-72
2022/03/07 06:26:39;;;;;;;;;;;24.30;39.50;;;;;;1594144;73;734;-69
2022/03/07 06:28:40;;;;;;;;;;;24.30;39.40;;;;;;1581684;74;1148;-67
2022/03/07 06:30:46;;;;;;;;;;;24.40;39.40;;;;;;1577368;73;712;-70
2022/03/07 06:32:48;;;;;;;;;;;24.30;39.40;;;;;;1590991;73;686;-69
2022/03/07 06:34:50;;;;;;;;;;;24.30;39.50;;;;;;1596773;73;668;-70
2022/03/07 06:36:52;;;;;;;;;;;24.30;39.40;;;;;;1557879;75;770;-70
2022/03/07 06:38:54;;;;;;;;;;;24.30;39.50;;;;;;1592412;73;1095;-71
2022/03/07 06:40:56;;;;;;;;;;;24.30;39.50;;;;;;1587582;74;662;-70
2022/03/07 06:42:58;;;;;;;;;;;24.40;39.50;;;;;;1594553;73;797;-70
2022/03/07 06:45:00;;;;;;;;;;;24.40;39.60;;;;;;1591753;73;1929;-70
2022/03/07 06:47:01;;;;;;;;;;;24.40;39.70;;;;;;1595148;73;735;-70
2022/03/07 06:49:04;;;;;;;;;;;24.30;39.70;;;;;;1591855;73;1171;-70
2022/03/07 06:51:06;;;;;;;;;;;24.40;39.70;;;;;;1593033;74;793;-69
2022/03/07 06:53:07;;;;;;;;;;;24.40;39.70;;;;;;1588715;74;780;-69
2022/03/07 06:55:10;;;;;;;;;;;24.40;39.60;;;;;;1589984;74;719;-70
2022/03/07 06:57:12;;;;;;;;;;;24.40;39.70;;;;;;1585689;73;856;-69
2022/03/07 06:59:14;;;;;;;;;;;24.40;39.60;;;;;;1586621;73;1128;-70
2022/03/07 07:01:15;;;;;;;;;;;24.40;39.90;;;;;;1574789;74;602;-70
2022/03/07 07:03:17;;;;;;;;;;;24.30;40.00;;;;;;1612048;73;747;-70
2022/03/07 07:05:19;;;;;;;;;;;24.30;40.00;;;;;;1610663;73;1944;-67
2022/03/07 07:07:21;;;;;;;;;;;24.30;40.10;;;;;;1613955;72;763;-69
2022/03/07 07:09:23;;;;;;;;;;;24.40;39.70;;;;;;1615328;73;1160;-70
2022/03/07 07:11:25;;;;;;;;;;;24.40;39.40;;;;;;1591074;73;696;-69
2022/03/07 07:13:27;;;;;;;;;;;24.50;39.30;;;;;;1560956;74;738;-70
2022/03/07 07:15:28;;;;;;;;;;;24.50;39.10;;;;;;1591138;73;681;-70
2022/03/07 07:17:30;;;;;;;;;;;24.50;39.00;;;;;;1596771;73;702;-70
2022/03/07 07:19:32;;;;;;;;;;;24.50;38.90;;;;;;1557045;75;1165;-70
2022/03/07 07:21:34;;;;;;;;;;;24.50;38.80;;;;;;1614271;72;726;-69
2022/03/07 07:23:37;;;;;;;;;;;24.50;38.70;;;;;;1615489;72;629;-67
2022/03/07 07:25:38;;;;;;;;;;;24.50;38.60;;;;;;1611926;73;1924;-69
2022/03/07 07:27:40;;;;;;;;;;;24.60;38.60;;;;;;1601645;73;725;-68
2022/03/07 07:29:42;;;;;;;;;;;24.60;38.60;;;;;;1613772;73;1161;-70
2022/03/07 07:31:44;;;;;;;;;;;24.50;38.50;;;;;;1615291;73;695;-70
2022/03/07 07:33:46;;;;;;;;;;;24.50;38.50;;;;;;1610697;72;728;-70
2022/03/07 07:35:48;;;;;;;;;;;24.50;38.50;;;;;;1616132;72;732;-71
2022/03/07 07:37:50;;;;;;;;;;;24.60;38.50;;;;;;1615008;72;1142;-71
2022/03/07 07:39:52;;;;;;;;;;;24.50;38.40;;;;;;1612908;73;810;-73
2022/03/07 07:41:55;;;;;;;;;;;24.60;38.50;;;;;;1591532;74;655;-69
2022/03/07 07:43:57;;;;;;;;;;;24.50;38.40;;;;;;1591816;73;718;-72
2022/03/07 07:48:37;;;;;;;;;;;24.50;38.40;;;;;;1565000;74;1111;-75
2022/03/07 07:50:39;;;;;;;;;;;24.50;38.30;;;;;;1612952;72;757;-71
2022/03/07 07:52:41;;;;;;;;;;;24.50;38.30;;;;;;1618667;72;743;-71
2022/03/07 07:54:43;;;;;;;;;;;24.50;38.40;;;;;;1610799;73;755;-71
2022/03/07 07:56:45;;;;;;;;;;;24.50;38.40;;;;;;1619001;72;748;-74
2022/03/07 07:58:46;;;;;;;;;;;24.50;38.30;;;;;;1598624;73;1361;-72
2022/03/07 08:00:48;;;;;;;;;;;24.50;38.30;;;;;;1613164;72;761;-72
2022/03/07 08:02:50;;;;;;;;;;;24.50;38.30;;;;;;1615163;73;785;-69
2022/03/07 08:49:24;;;;;;;;;;;24.40;38.00;;;;;;1541380;75;1642;-74
2022/03/07 08:51:25;;;;;;;;;;;24.30;38.10;;;;;;1552145;74;760;-74
2022/03/07 08:53:28;;;;;;;;;;;24.40;38.10;;;;;;1582046;74;700;-75
2022/03/07 08:55:29;;;;;;;;;;;24.30;38.00;;;;;;1554439;75;739;-75
2022/03/07 08:57:31;;;;;;;;;;;24.40;37.90;;;;;;1579110;74;802;-74
2022/03/07 08:59:33;;;;;;;;;;;24.30;37.90;;;;;;1577961;74;1124;-69
2022/03/07 09:01:36;;;;;;;;;;;24.50;38.00;;;;;;1587918;74;701;-71
2022/03/07 09:03:38;;;;;;;;;;;24.40;37.80;;;;;;1572167;74;1030;-73
2022/03/07 09:05:39;;;;;;;;;;;24.50;37.90;;;;;;1574172;74;1931;-74
2022/03/07 09:07:41;;;;;;;;;;;24.40;37.70;;;;;;1593285;73;728;-71
2022/03/07 09:09:43;;;;;;;;;;;24.40;37.70;;;;;;1587841;73;729;-71
2022/03/07 09:11:45;;;;;;;;;;;24.40;37.70;;;;;;1573506;73;714;-70
2022/03/07 09:13:47;;;;;;;;;;;24.50;37.80;;;;;;1590193;73;709;-71
2022/03/07 09:15:49;;;;;;;;;;;24.50;37.70;;;;;;1564183;74;758;-71
2022/03/07 09:17:51;;;;;;;;;;;24.50;37.70;;;;;;1561401;73;1133;-73
2022/03/07 09:19:53;;;;;;;;;;;24.50;37.60;;;;;;1571039;73;795;-73
2022/03/07 09:21:55;;;;;;;;;;;24.40;37.60;;;;;;1589097;73;757;-70
2022/03/07 09:23:57;;;;;;;;;;;24.40;37.50;;;;;;1542222;75;792;-70
2022/03/07 09:25:58;;;;;;;;;;;24.50;37.60;;;;;;1546480;76;1929;-74
2022/03/07 09:28:00;;;;;;;;;;;24.40;37.60;;;;;;1561860;74;1160;-70
2022/03/07 09:30:04;;;;;;;;;;;24.40;37.60;;;;;;1562906;74;727;-71
2022/03/07 09:32:09;;;;;;;;;;;24.50;37.60;;;;;;1546592;75;690;-73
2022/03/07 09:34:12;;;;;;;;;;;24.40;37.60;;;;;;1540746;75;826;-71
2022/03/07 09:36:14;;;;;;;;;;;24.40;37.60;;;;;;1585809;73;693;-72
2022/03/07 09:38:16;;;;;;;;;;;24.40;37.50;;;;;;1580404;73;1127;-68
2022/03/07 09:40:18;;;;;;;;;;;24.40;37.50;;;;;;1582895;73;811;-68
2022/03/07 09:42:21;;;;;;;;;;;24.40;37.50;;;;;;1596482;73;733;-69
2022/03/07 09:44:23;;;;;;;;;;;24.40;37.30;;;;;;1571439;73;837;-68
2022/03/07 09:46:26;;;;;;;;;;;24.40;37.30;;;;;;1588185;73;1916;-68
2022/03/07 09:48:27;;;;;;;;;;;24.40;37.30;;;;;;1578416;73;1134;-68
2022/03/07 09:50:29;;;;;;;;;;;24.40;37.20;;;;;;1563995;75;714;-69
2022/03/07 09:52:31;;;;;;;;;;;24.40;37.20;;;;;;1570102;75;783;-68
2022/03/07 09:54:33;;;;;;;;;;;24.40;37.20;;;;;;1570504;75;736;-70
2022/03/07 09:56:35;;;;;;;;;;;24.40;37.20;;;;;;1584796;74;678;-68
2022/03/07 09:58:37;;;;;;;;;;;24.30;37.20;;;;;;1592059;73;1156;-68
2022/03/07 10:00:43;;;;;;;;;;;24.40;37.20;;;;;;1582585;73;714;-70
2022/03/07 10:02:55;;;;;;;;;;;24.40;37.10;;;;;;1583059;73;845;-70
2022/03/07 10:04:58;;;;;;;;;;;24.30;37.20;;;;;;1581601;74;700;-72
2022/03/07 10:07:01;;;;;;;;;;;24.30;37.10;;;;;;1569566;74;1932;-68
2022/03/07 10:09:03;;;;;;;;;;;24.30;37.20;;;;;;1565782;74;1140;-69
2022/03/07 10:11:09;;;;;;;;;;;24.30;37.30;;;;;;1585717;74;731;-70
2022/03/07 10:13:11;;;;;;;;;;;24.30;37.30;;;;;;1571789;74;744;-67
2022/03/07 10:15:14;;;;;;;;;;;24.30;37.30;;;;;;1574052;74;720;-71
2022/03/07 10:17:20;;;;;;;;;;;24.30;37.30;;;;;;1588284;73;697;-68
2022/03/07 10:24:38;;;;;;;;;;;24.40;37.40;;;;;;1586174;73;1897;-71
2022/03/07 10:26:40;;;;;;;;;;;24.30;37.40;;;;;;1580789;73;1920;-67
2022/03/07 10:28:42;;;;;;;;;;;24.30;37.50;;;;;;1557334;75;1098;-67
2022/03/07 10:30:44;;;;;;;;;;;24.30;37.60;;;;;;1539385;76;756;-69
2022/03/07 10:32:48;;;;;;;;;;;24.40;37.60;;;;;;1521360;76;724;-72
2022/03/07 10:34:50;;;;;;;;;;;24.40;37.70;;;;;;1538774;75;1890;-68
2022/03/07 10:36:52;;;;;;;;;;;24.30;37.60;;;;;;1568143;74;750;-68
2022/03/07 10:38:57;;;;;;;;;;;24.50;37.70;;;;;;1572329;74;1121;-67
2022/03/07 10:40:59;;;;;;;;;;;24.50;37.60;;;;;;1564805;74;724;-71
2022/03/07 10:43:01;;;;;;;;;;;24.40;37.50;;;;;;1553147;75;724;-69
2022/03/07 10:45:04;;;;;;;;;;;24.40;37.50;;;;;;1557829;75;749;-69
2022/03/07 10:47:07;;;;;;;;;;;24.40;37.50;;;;;;1546292;75;1917;-68
2022/03/07 10:49:11;;;;;;;;;;;24.40;37.50;;;;;;1564675;74;1932;-68
2022/03/07 10:51:17;;;;;;;;;;;24.40;37.40;;;;;;1562129;74;747;-69
2022/03/07 10:53:18;;;;;;;;;;;24.40;37.40;;;;;;1567268;74;805;-71
2022/03/07 10:55:25;;;;;;;;;;;24.30;37.50;;;;;;1573512;74;802;-68
2022/03/07 10:57:27;;;;;;;;;;;24.40;37.50;;;;;;1557868;74;697;-70
2022/03/07 10:59:29;;;;;;;;;;;24.30;37.50;;;;;;1560369;74;1136;-66
2022/03/07 11:01:32;;;;;;;;;;;24.30;37.50;;;;;;1553789;75;776;-69
2022/03/07 11:03:35;;;;;;;;;;;24.30;37.40;;;;;;1547847;75;702;-69
2022/03/07 11:05:37;;;;;;;;;;;24.30;37.50;;;;;;1590855;73;767;-68
2022/03/07 11:07:40;;;;;;;;;;;24.30;37.50;;;;;;1576974;73;1920;-68
2022/03/07 11:09:42;;;;;;;;;;;24.30;37.50;;;;;;1579195;73;1170;-68
2022/03/07 11:11:44;;;;;;;;;;;24.30;37.50;;;;;;1582803;73;807;-70
2022/03/07 11:13:46;;;;;;;;;;;24.30;37.40;;;;;;1598853;73;827;-70
2022/03/07 11:15:48;;;;;;;;;;;24.30;37.40;;;;;;1595394;73;823;-68
2022/03/07 11:17:49;;;;;;;;;;;24.30;37.40;;;;;;1578315;73;1137;-69
2022/03/07 11:19:54;;;;;;;;;;;24.20;37.30;;;;;;1567003;73;774;-67
2022/03/07 11:21:56;;;;;;;;;;;24.30;37.40;;;;;;1590752;73;786;-68
2022/03/07 11:23:58;;;;;;;;;;;24.30;37.40;;;;;;1572872;73;732;-68
2022/03/07 11:26:00;;;;;;;;;;;24.30;37.30;;;;;;1587353;73;732;-67
2022/03/07 11:28:02;;;;;;;;;;;24.30;37.30;;;;;;1562149;75;1933;-67
2022/03/07 11:30:14;;;;;;;;;;;24.30;37.30;;;;;;1562367;75;773;-69
2022/03/07 11:32:18;;;;;;;;;;;24.30;37.30;;;;;;1520115;76;983;-67
2022/03/07 11:34:20;;;;;;;;;;;24.30;37.30;;;;;;1558161;75;711;-68
2022/03/07 11:36:22;;;;;;;;;;;24.30;37.20;;;;;;1562189;75;737;-68
2022/03/07 11:38:25;;;;;;;;;;;24.30;37.20;;;;;;1555670;75;1102;-68
2022/03/07 11:40:27;;;;;;;;;;;24.30;37.20;;;;;;1562095;74;710;-68
2022/03/07 11:42:36;;;;;;;;;;;24.30;37.20;;;;;;1556782;74;707;-69
2022/03/07 11:44:40;;;;;;;;;;;24.30;37.10;;;;;;1565212;74;954;-69
2022/03/07 11:46:44;;;;;;;;;;;24.20;37.00;;;;;;1596022;73;1919;-69
2022/03/07 11:48:47;;;;;;;;;;;24.30;37.10;;;;;;1588347;73;1137;-68
2022/03/07 11:50:49;;;;;;;;;;;24.20;37.00;;;;;;1591587;73;927;-68
2022/03/07 11:52:52;;;;;;;;;;;24.20;37.00;;;;;;1588552;73;831;-70
2022/03/07 11:54:55;;;;;;;;;;;24.20;37.10;;;;;;1583762;73;1916;-72
2022/03/07 11:57:07;;;;;;;;;;;24.20;37.10;;;;;;1553183;75;798;-69
2022/03/07 11:59:11;;;;;;;;;;;24.20;37.00;;;;;;1539924;75;1157;-69
2022/03/07 12:01:13;;;;;;;;;;;24.20;37.00;;;;;;1542136;75;758;-66
2022/03/07 12:03:15;;;;;;;;;;;24.20;37.00;;;;;;1573707;74;749;-68
2022/03/07 12:05:33;;;;;;;;;;;24.20;37.10;;;;;;1568985;74;805;-67
2022/03/07 12:07:35;;;;;;;;;;;24.20;37.00;;;;;;1577664;74;1915;-68
2022/03/07 12:09:37;;;;;;;;;;;24.20;37.00;;;;;;1578628;74;1102;-69
2022/03/07 12:11:39;;;;;;;;;;;24.20;37.00;;;;;;1571230;74;739;-69
2022/03/07 12:13:48;;;;;;;;;;;24.20;37.00;;;;;;1559735;74;747;-67
2022/03/07 12:15:52;;;;;;;;;;;24.20;36.90;;;;;;1570920;74;741;-69
2022/03/07 12:17:56;;;;;;;;;;;24.20;36.90;;;;;;1584539;73;1248;-68
2022/03/07 12:19:58;;;;;;;;;;;24.20;36.90;;;;;;1582104;74;2059;-67
2022/03/07 12:22:00;;;;;;;;;;;24.20;36.90;;;;;;1533297;75;781;-68
2022/03/07 12:24:01;;;;;;;;;;;24.20;36.90;;;;;;1525606;77;967;-68
2022/03/07 12:26:04;;;;;;;;;;;24.30;37.00;;;;;;1552649;76;741;-70
2022/03/07 12:28:06;;;;;;;;;;;24.20;36.80;;;;;;1588744;74;1936;-68
2022/03/07 12:30:09;;;;;;;;;;;24.30;36.90;;;;;;1578398;74;803;-67
2022/03/07 12:32:11;;;;;;;;;;;24.30;36.90;;;;;;1561687;74;833;-71
2022/03/07 12:34:13;;;;;;;;;;;24.30;36.90;;;;;;1566519;73;796;-68
2022/03/07 12:36:15;;;;;;;;;;;24.30;36.90;;;;;;1577981;73;745;-68
2022/03/07 12:38:17;;;;;;;;;;;24.30;36.90;;;;;;1582017;73;1143;-70
2022/03/07 12:40:19;;;;;;;;;;;24.30;36.80;;;;;;1568483;73;799;-69
2022/03/07 12:42:25;;;;;;;;;;;24.40;36.80;;;;;;1586113;73;828;-68
2022/03/07 12:44:27;;;;;;;;;;;24.30;36.80;;;;;;1572027;73;1777;-68
2022/03/07 12:46:29;;;;;;;;;;;24.20;36.60;;;;;;1563950;73;751;-68
2022/03/07 12:48:35;;;;;;;;;;;24.30;36.80;;;;;;1576382;73;1945;-68
2022/03/07 12:50:37;;;;;;;;;;;24.30;36.80;;;;;;1585433;73;683;-68
2022/03/07 12:52:40;;;;;;;;;;;24.20;36.60;;;;;;1593119;73;781;-68
2022/03/07 12:54:42;;;;;;;;;;;24.30;36.80;;;;;;1580997;73;778;-68
2022/03/07 12:56:44;;;;;;;;;;;24.30;36.80;;;;;;1576481;73;880;-68
2022/03/07 12:58:48;;;;;;;;;;;24.30;36.80;;;;;;1587336;73;1192;-68
2022/03/07 13:00:49;;;;;;;;;;;24.30;36.80;;;;;;1568045;73;990;-68
2022/03/07 13:02:52;;;;;;;;;;;24.30;36.70;;;;;;1564114;73;743;-68